createdAt,value
2018-06-15T00:03:56.561Z,99202.95
2018-06-15T00:08:35.206Z,99196.70
2018-06-15T00:13:13.773Z,99201.47
2018-06-15T00:17:52.300Z,99196.75
2018-06-15T00:22:30.760Z,99198.89
2018-06-15T00:27:12.902Z,99199.83
2018-06-15T00:31:51.392Z,99213.20
2018-06-15T00:36:29.941Z,99205.50
2018-06-15T00:41:08.861Z,99195.41
2018-06-15T00:45:47.806Z,99196.29
2018-06-15T00:50:26.330Z,99191.48
2018-06-15T00:55:09.470Z,99182.70
2018-06-15T00:59:48.103Z,99175.28
2018-06-15T01:04:30.150Z,99167.95
2018-06-15T01:09:09.366Z,99161.98
2018-06-15T01:13:47.863Z,99162.93
2018-06-15T01:18:27.578Z,99166.28
2018-06-15T01:23:06.092Z,99165.75
2018-06-15T01:27:44.517Z,99170.34
2018-06-15T01:32:23.090Z,99180.23
2018-06-15T01:37:02.619Z,99172.41
2018-06-15T01:41:41.161Z,99177.00
2018-06-15T01:46:23.645Z,99184.70
2018-06-15T01:51:02.114Z,99184.03
2018-06-15T01:55:44.166Z,99184.77
2018-06-15T02:00:22.712Z,99199.80
2018-06-15T02:05:02.158Z,99199.95
2018-06-15T02:09:40.585Z,99205.12
2018-06-15T02:14:23.696Z,99208.52
2018-06-15T02:19:02.389Z,99218.63
2018-06-15T02:23:40.913Z,99220.23
2018-06-15T02:28:19.534Z,99228.09
2018-06-15T02:32:58.171Z,99218.48
2018-06-15T02:37:37.652Z,99222.04
2018-06-15T02:42:16.290Z,99222.16
2018-06-15T02:46:54.978Z,99224.42
2018-06-15T02:51:33.618Z,99242.21
2018-06-15T02:56:13.265Z,99246.19
2018-06-15T03:00:51.745Z,99245.47
2018-06-15T03:05:31.400Z,99238.84
2018-06-15T03:10:09.985Z,99245.25
2018-06-15T03:14:49.716Z,99255.85
2018-06-15T03:19:28.501Z,99253.95
2018-06-15T03:24:10.911Z,99260.87
2018-06-15T03:28:49.488Z,99261.66
2018-06-15T03:33:28.137Z,99263.65
2018-06-15T03:38:06.706Z,99264.21
2018-06-15T03:42:45.155Z,99266.05
2018-06-15T03:47:23.800Z,99268.95
2018-06-15T03:52:02.331Z,99269.58
2018-06-15T03:56:41.741Z,99264.28
2018-06-15T04:01:20.226Z,99272.65
2018-06-15T04:05:59.025Z,99268.87
2018-06-15T04:10:37.657Z,99279.49
2018-06-15T04:15:16.305Z,99283.30
2018-06-15T04:19:54.817Z,99278.42
2018-06-15T04:24:34.554Z,99277.18
2018-06-15T04:29:13.143Z,99283.61
2018-06-15T04:33:57.221Z,99279.04
2018-06-15T04:38:35.817Z,99278.50
2018-06-15T04:43:14.549Z,99286.71
2018-06-15T04:47:54.449Z,99283.83
2018-06-15T04:52:32.973Z,99288.33
2018-06-15T04:57:11.765Z,99296.70
2018-06-15T05:01:50.445Z,99293.33
2018-06-15T05:06:29.090Z,99289.14
2018-06-15T05:11:07.718Z,99279.17
2018-06-15T05:15:49.533Z,99275.22
2018-06-15T05:20:28.101Z,99272.77
2018-06-15T05:25:07.803Z,99280.05
2018-06-15T05:29:46.273Z,99288.23
2018-06-15T05:34:27.522Z,99295.23
2018-06-15T05:39:10.500Z,99292.80
2018-06-15T05:43:52.329Z,99299.41
2018-06-15T05:48:30.902Z,99305.20
2018-06-15T05:53:09.540Z,99303.04
2018-06-15T05:57:48.043Z,99314.97
2018-06-15T06:08:01.080Z,99306.61
2018-06-15T06:12:42.495Z,99301.56
2018-06-15T06:17:24.397Z,99296.42
2018-06-15T06:22:03.999Z,99299.84
2018-06-15T06:26:43.741Z,99302.05
2018-06-15T06:31:22.401Z,99307.95
2018-06-15T06:36:01.051Z,99321.39
2018-06-15T06:40:39.476Z,99312.01
2018-06-15T06:45:21.874Z,99319.84
2018-06-15T06:50:00.400Z,99322.05
2018-06-15T06:54:39.614Z,99321.28
2018-06-15T06:59:18.574Z,99320.48
2018-06-15T07:04:00.463Z,99309.94
2018-06-15T07:08:39.333Z,99308.43
2018-06-15T07:13:18.502Z,99309.19
2018-06-15T07:17:57.551Z,99307.44
2018-06-15T07:22:36.190Z,99306.08
2018-06-15T07:27:15.059Z,99299.72
2018-06-15T07:31:53.827Z,99302.03
2018-06-15T07:36:36.098Z,99303.62
2018-06-15T07:41:14.650Z,99297.38
2018-06-15T07:45:59.950Z,99292.63
2018-06-15T07:50:38.933Z,99284.73
2018-06-15T07:55:17.559Z,99292.37
2018-06-15T07:59:56.137Z,99278.92
2018-06-15T08:04:41.433Z,99286.01
2018-06-15T08:09:19.923Z,99301.90
2018-06-15T08:14:01.903Z,99297.77
2018-06-15T08:18:40.601Z,99287.49
2018-06-15T08:23:19.123Z,99287.41
2018-06-15T08:27:57.721Z,99287.67
2018-06-15T08:32:36.854Z,99295.84
2018-06-15T08:37:15.471Z,99295.53
2018-06-15T08:41:53.785Z,99300.55
2018-06-15T08:46:35.781Z,99296.95
2018-06-15T08:51:14.347Z,99288.45
2018-06-15T08:55:53.199Z,99296.11
2018-06-15T09:00:31.785Z,99289.61
2018-06-15T09:05:14.439Z,99299.14
2018-06-15T09:09:52.848Z,99279.98
2018-06-15T09:14:32.369Z,99277.75
2018-06-15T09:19:10.978Z,99279.99
2018-06-15T09:23:53.399Z,99277.02
2018-06-15T09:28:31.908Z,99275.97
2018-06-15T09:33:11.718Z,99275.74
2018-06-15T09:37:50.306Z,99274.79
2018-06-15T09:42:29.746Z,99275.38
2018-06-15T09:47:13.390Z,99271.71
2018-06-15T09:51:52.099Z,99276.39
2018-06-15T09:56:35.240Z,99275.41
2018-06-15T10:01:13.899Z,99276.25
2018-06-15T10:05:53.832Z,99276.59
2018-06-15T10:10:32.371Z,99269.30
2018-06-15T10:15:11.258Z,99267.34
2018-06-15T10:19:49.837Z,99261.33
2018-06-15T10:24:31.891Z,99264.05
2018-06-15T10:29:10.502Z,99258.38
2018-06-15T10:33:54.266Z,99261.37
2018-06-15T10:38:32.986Z,99263.53
2018-06-15T10:43:11.993Z,99260.05
2018-06-15T10:47:50.384Z,99267.00
2018-06-15T10:52:29.110Z,99266.28
2018-06-15T10:57:07.911Z,99260.89
2018-06-15T11:01:46.395Z,99257.91
2018-06-15T11:06:25.233Z,99259.09
2018-06-15T11:11:03.781Z,99256.70
2018-06-15T11:15:43.055Z,99255.66
2018-06-15T11:20:21.636Z,99252.25
2018-06-15T11:25:04.078Z,99250.76
2018-06-15T11:29:42.721Z,99250.48
2018-06-15T11:34:22.290Z,99253.09
2018-06-15T11:39:00.917Z,99252.55
2018-06-15T11:43:39.625Z,99245.48
2018-06-15T11:48:18.126Z,99248.62
2018-06-15T11:53:00.173Z,99249.41
2018-06-15T11:57:38.810Z,99251.48
2018-06-15T12:02:17.447Z,99256.09
2018-06-15T12:06:56.039Z,99258.55
2018-06-15T12:11:34.701Z,99258.89
2018-06-15T12:16:13.461Z,99261.02
2018-06-15T12:20:52.109Z,99267.09
2018-06-15T12:25:31.818Z,99263.30
2018-06-15T12:30:10.479Z,99264.41
2018-06-15T12:34:49.964Z,99272.30
2018-06-15T12:39:28.563Z,99264.80
2018-06-15T12:44:12.577Z,99263.42
2018-06-15T12:48:51.200Z,99256.38
2018-06-15T12:53:38.667Z,99252.11
2018-06-15T12:58:17.249Z,99260.72
2018-06-15T13:02:58.969Z,99255.38
2018-06-15T13:07:37.488Z,99257.19
2018-06-15T13:12:16.314Z,99264.45
2018-06-15T13:16:54.860Z,99265.08
2018-06-15T13:21:35.311Z,99270.64
2018-06-15T13:26:17.265Z,99284.51
2018-06-15T13:30:55.920Z,99278.00
2018-06-15T13:35:37.678Z,99272.49
2018-06-15T13:40:16.305Z,99275.66
2018-06-15T13:45:00.739Z,99263.28
2018-06-15T13:49:39.266Z,99261.34
2018-06-15T13:54:22.970Z,99262.53
2018-06-15T13:59:01.573Z,99259.17
2018-06-15T14:03:43.317Z,99259.86
2018-06-15T14:08:22.980Z,99243.22
2018-06-15T14:13:02.747Z,99243.35
2018-06-15T14:17:41.339Z,99227.02
2018-06-15T14:22:25.137Z,99219.66
2018-06-15T14:27:03.776Z,99209.41
2018-06-15T14:31:42.359Z,99216.98
2018-06-15T14:36:22.108Z,99226.59
2018-06-15T14:41:00.793Z,99244.02
2018-06-15T14:47:12.530Z,99249.36
2018-06-15T14:51:51.212Z,99259.64
2018-06-15T14:56:29.868Z,99284.69
2018-06-15T15:01:08.517Z,99307.66
2018-06-15T15:05:47.249Z,99322.95
2018-06-15T15:10:25.919Z,99319.38
2018-06-15T15:15:05.548Z,99327.20
2018-06-15T15:19:44.158Z,99328.41
2018-06-15T15:24:25.945Z,99325.57
2018-06-15T15:29:05.330Z,99322.63
2018-06-15T15:33:45.111Z,99328.61
2018-06-15T15:38:23.705Z,99330.27
2018-06-15T15:43:05.886Z,99316.85
2018-06-15T15:47:44.526Z,99322.02
2018-06-15T15:52:27.185Z,99318.64
2018-06-15T15:57:05.831Z,99327.87
2018-06-15T16:01:44.634Z,99329.05
2018-06-15T16:06:23.255Z,99319.98
2018-06-15T16:11:01.929Z,99329.81
2018-06-15T16:15:41.473Z,99338.63
2018-06-15T16:20:20.094Z,99341.53
2018-06-15T16:24:59.687Z,99354.36
2018-06-15T16:29:38.258Z,99363.27
2018-06-15T16:34:17.894Z,99380.42
2018-06-15T16:38:56.391Z,99396.27
2018-06-15T16:43:40.247Z,99404.64
2018-06-15T16:48:18.883Z,99390.55
2018-06-15T16:53:01.385Z,99377.33
2018-06-15T16:57:39.998Z,99362.72
2018-06-15T17:02:22.270Z,99348.13
2018-06-15T17:07:00.792Z,99361.56
2018-06-15T17:11:39.495Z,99366.90
2018-06-15T17:16:18.178Z,99375.56
2018-06-15T17:20:56.729Z,99376.84
2018-06-15T17:25:38.399Z,99372.95
2018-06-15T17:35:17.251Z,99363.03
2018-06-15T17:40:12.814Z,99374.27
2018-06-15T17:50:56.263Z,99381.54
2018-06-15T17:55:45.837Z,99385.81
2018-06-15T18:00:24.518Z,99393.75
2018-06-15T18:10:32.344Z,99416.89
2018-06-15T18:15:11.903Z,99440.86
2018-06-15T18:19:51.123Z,99435.47
2018-06-15T18:24:34.618Z,99433.90
2018-06-15T18:29:13.180Z,99436.00
2018-06-15T18:33:53.031Z,99427.01
2018-06-15T18:38:32.667Z,99434.33
2018-06-15T18:43:19.507Z,99424.03
2018-06-15T18:47:58.808Z,99404.66
2018-06-15T18:52:40.786Z,99386.75
2018-06-15T18:57:19.388Z,99356.06
2018-06-15T19:02:01.704Z,99329.33
2018-06-15T19:06:40.339Z,99316.23
2018-06-15T19:11:19.677Z,99319.58
2018-06-15T19:15:58.205Z,99367.72
2018-06-15T19:20:36.773Z,99369.10
2018-06-15T19:25:15.596Z,99367.58
2018-06-15T19:29:54.566Z,99364.56
2018-06-15T19:34:37.187Z,99380.48
2018-06-15T19:39:15.755Z,99370.20
2018-06-15T19:43:57.570Z,99380.95
2018-06-15T19:48:36.066Z,99377.76
2018-06-15T19:53:14.945Z,99380.22
2018-06-15T19:57:53.447Z,99359.86
2018-06-15T20:02:32.215Z,99360.16
2018-06-15T20:07:17.381Z,99364.02
2018-06-15T20:12:02.280Z,99361.91
2018-06-15T20:16:45.342Z,99366.45
2018-06-15T20:21:25.070Z,99366.58
2018-06-15T20:26:03.905Z,99363.36
2018-06-15T20:30:42.476Z,99368.56
2018-06-15T20:35:24.914Z,99366.38
2018-06-15T20:40:03.487Z,99372.44
2018-06-15T20:44:45.335Z,99366.23
2018-06-15T20:49:23.803Z,99375.30
2018-06-15T20:54:13.852Z,99387.09
2018-06-15T20:58:52.254Z,99409.27
2018-06-15T21:03:31.787Z,99411.43
2018-06-15T21:08:10.439Z,99417.16
2018-06-15T21:12:49.897Z,99424.00
2018-06-15T21:17:28.418Z,99426.12
2018-06-15T21:22:07.235Z,99419.88
2018-06-15T21:26:45.762Z,99434.63
2018-06-15T21:31:24.334Z,99429.41
2018-06-15T21:36:02.906Z,99434.59
2018-06-15T21:40:41.552Z,99436.55
2018-06-15T21:45:20.146Z,99438.80
2018-06-15T21:49:58.623Z,99442.65
2018-06-15T21:54:40.293Z,99437.11
2018-06-15T21:59:18.779Z,99425.70
2018-06-15T22:04:00.756Z,99427.66
2018-06-15T22:08:39.178Z,99419.52
2018-06-15T22:13:20.805Z,99427.02
2018-06-15T22:17:59.310Z,99424.11
2018-06-15T22:22:42.411Z,99421.02
2018-06-15T22:27:20.975Z,99415.91
2018-06-15T22:32:00.793Z,99419.97
2018-06-15T22:36:39.997Z,99423.79
2018-06-15T22:41:18.574Z,99427.55
2018-06-15T22:45:57.072Z,99435.83
2018-06-15T22:50:35.580Z,99436.37
2018-06-15T22:55:14.722Z,99431.66
2018-06-15T22:59:53.239Z,99435.25
2018-06-15T23:04:35.263Z,99429.33
2018-06-15T23:09:13.759Z,99438.59
2018-06-15T23:13:52.516Z,99428.61
2018-06-15T23:18:31.006Z,99432.30
2018-06-15T23:23:09.730Z,99428.09
2018-06-15T23:27:48.354Z,99431.13
2018-06-15T23:32:27.065Z,99412.43
2018-06-15T23:37:05.530Z,99412.08
2018-06-15T23:41:47.442Z,99416.66
2018-06-15T23:46:26.066Z,99414.20
2018-06-15T23:51:07.625Z,99404.52
2018-06-15T23:55:46.132Z,99399.10
